Limavady, United Kingdom
Current Conditions -  °F | °C
As of 4:20 PM on Wednesday 22 Oct 2014 (Local Time) from EGAE Reporting Station
Scattered Clouds Scattered Clouds  
Wind Chill: 13°   Ceiling: Unl
Heat Index: 13°   Visibility: 6mi
Dew Point: 10°   Wind: 17mph
Humidity: 82%   Direction: 230°SW
Pressure: 29.97"   Gusts: NA
Location:  55.05°N, 6.95°W
Report Text: EGAE 221520Z 23015KT 9999 SCT025 13/10 Q1015
Loading
Personal Weather Stations






























Interactive Weather Map
Tropical Storm Tracking
New forecast layout! Learn more

10-Day Weather Forecast

Advertisements
Track Severe Weather on mobile